AVA1408 SKBO-SKRG
Flight info
| Callsign | AVA1408 |
|---|---|
| Flight time | 0h 30m |
| Altitude | 21000 |
| Route | TOBKI4R VASIL W36 NIRSO NIRSO3C |
| Aircraft | A20N/M-SDE2E3FGHIRWXY/LB1 |
Departure
| Time | 2026-05-09 22:33 |
|---|---|
| Airport | El Dorado International Airport (SKBO) |
Arrival
| Time | 2026-05-09 23:03 |
|---|---|
| Airport | Jose Maria Córdova International Airport (SKRG) |
| Time | Latitude | Longitude | Altitude | Speed | Heading |
|---|---|---|---|---|---|
| 2026-05-09 21:57 | 4.69876 | -74.14448 | 8356 ft | 0 kts | 220° |
| 2026-05-09 22:13 | 4.69882 | -74.14444 | 8365 ft | 2 kts | 220° |
| 2026-05-09 22:14 | 4.69893 | -74.14432 | 8365 ft | 2 kts | 248° |
| 2026-05-09 22:14 | 4.69896 | -74.14421 | 8366 ft | 2 kts | 261° |
| 2026-05-09 22:14 | 4.69898 | -74.14404 | 8366 ft | 2 kts | 270° |
| 2026-05-09 22:14 | 4.69895 | -74.14388 | 8366 ft | 2 kts | 306° |
| 2026-05-09 22:15 | 4.69894 | -74.14387 | 8366 ft | 0 kts | 310° |
| 2026-05-09 22:19 | 4.69897 | -74.14391 | 8366 ft | 2 kts | 310° |
| 2026-05-09 22:19 | 4.69913 | -74.14410 | 8365 ft | 5 kts | 310° |
| 2026-05-09 22:19 | 4.69940 | -74.14443 | 8365 ft | 7 kts | 308° |
| 2026-05-09 22:20 | 4.69976 | -74.14490 | 8366 ft | 10 kts | 307° |
| 2026-05-09 22:20 | 4.70021 | -74.14550 | 8365 ft | 12 kts | 307° |
| 2026-05-09 22:20 | 4.70070 | -74.14593 | 8366 ft | 9 kts | 332° |
| 2026-05-09 22:20 | 4.70123 | -74.14635 | 8365 ft | 11 kts | 317° |
| 2026-05-09 22:21 | 4.70156 | -74.14695 | 8365 ft | 10 kts | 261° |
| 2026-05-09 22:21 | 4.70102 | -74.14749 | 8365 ft | 12 kts | 217° |
| 2026-05-09 22:21 | 4.70029 | -74.14806 | 8365 ft | 14 kts | 218° |
| 2026-05-09 22:21 | 4.70017 | -74.14815 | 8364 ft | 1 kts | 218° |
| 2026-05-09 22:23 | 4.70009 | -74.14821 | 8364 ft | 3 kts | 217° |
| 2026-05-09 22:24 | 4.69984 | -74.14840 | 8365 ft | 6 kts | 217° |
| 2026-05-09 22:24 | 4.69944 | -74.14870 | 8364 ft | 8 kts | 217° |
| 2026-05-09 22:24 | 4.69890 | -74.14911 | 8364 ft | 11 kts | 217° |
| 2026-05-09 22:24 | 4.69855 | -74.14975 | 8364 ft | 12 kts | 288° |
| 2026-05-09 22:25 | 4.69905 | -74.15046 | 8364 ft | 13 kts | 307° |
| 2026-05-09 22:25 | 4.69965 | -74.15125 | 8364 ft | 15 kts | 307° |
| 2026-05-09 22:25 | 4.70031 | -74.15213 | 8363 ft | 17 kts | 307° |
| 2026-05-09 22:25 | 4.70105 | -74.15310 | 8363 ft | 18 kts | 307° |
| 2026-05-09 22:26 | 4.70184 | -74.15415 | 8363 ft | 20 kts | 307° |
| 2026-05-09 22:26 | 4.70268 | -74.15528 | 8363 ft | 21 kts | 307° |
| 2026-05-09 22:26 | 4.70357 | -74.15644 | 8362 ft | 22 kts | 308° |
| 2026-05-09 22:26 | 4.70453 | -74.15766 | 8362 ft | 23 kts | 308° |
| 2026-05-09 22:27 | 4.70548 | -74.15895 | 8362 ft | 23 kts | 306° |
| 2026-05-09 22:27 | 4.70639 | -74.16017 | 8362 ft | 19 kts | 307° |
| 2026-05-09 22:27 | 4.70722 | -74.16126 | 8362 ft | 20 kts | 308° |
| 2026-05-09 22:27 | 4.70811 | -74.16243 | 8362 ft | 21 kts | 307° |
| 2026-05-09 22:28 | 4.70905 | -74.16367 | 8362 ft | 22 kts | 307° |
| 2026-05-09 22:28 | 4.70993 | -74.16485 | 8362 ft | 20 kts | 308° |
| 2026-05-09 22:28 | 4.71082 | -74.16600 | 8362 ft | 21 kts | 307° |
| 2026-05-09 22:28 | 4.71174 | -74.16720 | 8361 ft | 21 kts | 307° |
| 2026-05-09 22:29 | 4.71195 | -74.16797 | 8361 ft | 1 kts | 239° |
| 2026-05-09 22:29 | 4.71185 | -74.16808 | 8361 ft | 3 kts | 224° |
| 2026-05-09 22:29 | 4.71158 | -74.16827 | 8361 ft | 6 kts | 215° |
| 2026-05-09 22:29 | 4.71144 | -74.16838 | 8361 ft | 0 kts | 217° |
| 2026-05-09 22:31 | 4.71142 | -74.16839 | 8361 ft | 0 kts | 217° |
| 2026-05-09 22:31 | 4.71136 | -74.16844 | 8361 ft | 3 kts | 217° |
| 2026-05-09 22:31 | 4.71111 | -74.16863 | 8360 ft | 6 kts | 217° |
| 2026-05-09 22:32 | 4.71064 | -74.16889 | 8360 ft | 9 kts | 192° |
| 2026-05-09 22:32 | 4.71013 | -74.16860 | 8361 ft | 10 kts | 127° |
| 2026-05-09 22:32 | 4.70942 | -74.16767 | 8361 ft | 41 kts | 128° |
| 2026-05-09 22:32 | 4.70632 | -74.16358 | 8363 ft | 104 kts | 127° |
| 2026-05-09 22:33 | 4.70087 | -74.15643 | 8363 ft | 153 kts | 127° |
| 2026-05-09 22:33 | 4.69356 | -74.14692 | 8443 ft | 185 kts | 128° |
| 2026-05-09 22:33 | 4.68576 | -74.13667 | 8977 ft | 189 kts | 127° |
| 2026-05-09 22:33 | 4.67729 | -74.12539 | 9320 ft | 210 kts | 127° |
| 2026-05-09 22:34 | 4.66833 | -74.11326 | 9617 ft | 228 kts | 127° |
| 2026-05-09 22:34 | 4.65865 | -74.10003 | 10068 ft | 239 kts | 126° |
| 2026-05-09 22:34 | 4.64856 | -74.08606 | 10416 ft | 256 kts | 126° |
| 2026-05-09 22:34 | 4.63779 | -74.07103 | 10926 ft | 270 kts | 126° |
| 2026-05-09 22:35 | 4.62698 | -74.05578 | 11979 ft | 264 kts | 125° |
| 2026-05-09 22:35 | 4.61650 | -74.04080 | 12961 ft | 261 kts | 125° |
| 2026-05-09 22:35 | 4.60507 | -74.02699 | 13950 ft | 247 kts | 146° |
| 2026-05-09 22:35 | 4.58965 | -74.02143 | 14844 ft | 240 kts | 178° |
| 2026-05-09 22:36 | 4.57245 | -74.02338 | 15031 ft | 264 kts | 198° |
| 2026-05-09 22:36 | 4.55470 | -74.03212 | 14952 ft | 298 kts | 217° |
| 2026-05-09 22:36 | 4.53967 | -74.04765 | 15079 ft | 321 kts | 240° |
| 2026-05-09 22:36 | 4.53404 | -74.06958 | 15358 ft | 337 kts | 270° |
| 2026-05-09 22:37 | 4.53697 | -74.09337 | 15640 ft | 354 kts | 286° |
| 2026-05-09 22:37 | 4.54722 | -74.11691 | 15683 ft | 378 kts | 296° |
| 2026-05-09 22:37 | 4.56185 | -74.13919 | 16063 ft | 390 kts | 308° |
| 2026-05-09 22:37 | 4.57966 | -74.16062 | 15843 ft | 417 kts | 310° |
| 2026-05-09 22:38 | 4.59864 | -74.18404 | 15508 ft | 444 kts | 307° |
| 2026-05-09 22:38 | 4.61401 | -74.21137 | 15635 ft | 450 kts | 290° |
| 2026-05-09 22:38 | 4.61892 | -74.24182 | 15951 ft | 445 kts | 268° |
| 2026-05-09 22:39 | 4.61419 | -74.30437 | 16347 ft | 452 kts | 264° |
| 2026-05-09 22:39 | 4.61273 | -74.33598 | 16115 ft | 448 kts | 270° |
| 2026-05-09 22:39 | 4.61476 | -74.36687 | 15477 ft | 438 kts | 277° |
| 2026-05-09 22:40 | 4.62630 | -74.42435 | 16329 ft | 420 kts | 283° |
| 2026-05-09 22:40 | 4.63543 | -74.45282 | 16518 ft | 436 kts | 294° |
| 2026-05-09 22:40 | 4.65039 | -74.47903 | 16710 ft | 438 kts | 302° |
| 2026-05-09 22:40 | 4.66701 | -74.50480 | 16745 ft | 438 kts | 303° |
| 2026-05-09 22:41 | 4.68371 | -74.53065 | 17158 ft | 443 kts | 303° |
| 2026-05-09 22:41 | 4.70049 | -74.55660 | 18127 ft | 433 kts | 303° |
| 2026-05-09 22:41 | 4.71626 | -74.58096 | 19044 ft | 399 kts | 303° |
| 2026-05-09 22:41 | 4.73112 | -74.60391 | 19561 ft | 389 kts | 303° |
| 2026-05-09 22:42 | 4.74590 | -74.62672 | 19828 ft | 390 kts | 303° |
| 2026-05-09 22:42 | 4.76069 | -74.64952 | 19965 ft | 389 kts | 303° |
| 2026-05-09 22:42 | 4.77555 | -74.67244 | 19999 ft | 394 kts | 303° |
| 2026-05-09 22:42 | 4.79062 | -74.69566 | 20000 ft | 391 kts | 303° |
| 2026-05-09 22:43 | 4.80556 | -74.71868 | 20001 ft | 388 kts | 303° |
| 2026-05-09 22:43 | 4.82009 | -74.74104 | 20000 ft | 386 kts | 303° |
| 2026-05-09 22:43 | 4.83487 | -74.76353 | 19999 ft | 387 kts | 305° |
| 2026-05-09 22:43 | 4.85120 | -74.78517 | 20001 ft | 387 kts | 308° |
| 2026-05-09 22:44 | 4.86803 | -74.80621 | 20000 ft | 387 kts | 308° |
| 2026-05-09 22:44 | 4.88483 | -74.82742 | 20000 ft | 387 kts | 308° |
| 2026-05-09 22:44 | 4.90133 | -74.84873 | 20000 ft | 387 kts | 307° |
| 2026-05-09 22:44 | 4.91770 | -74.87025 | 20000 ft | 387 kts | 307° |
| 2026-05-09 22:45 | 4.93398 | -74.89185 | 20001 ft | 387 kts | 307° |
| 2026-05-09 22:45 | 4.95021 | -74.91347 | 19999 ft | 388 kts | 307° |
| 2026-05-09 22:45 | 4.96629 | -74.93493 | 20000 ft | 388 kts | 307° |
| 2026-05-09 22:45 | 4.98269 | -74.95680 | 20000 ft | 391 kts | 307° |
| 2026-05-09 22:46 | 4.99901 | -74.97857 | 20000 ft | 392 kts | 307° |
| 2026-05-09 22:46 | 5.01544 | -75.00048 | 20000 ft | 392 kts | 307° |
| 2026-05-09 22:46 | 5.03191 | -75.02244 | 20000 ft | 393 kts | 307° |
| 2026-05-09 22:47 | 5.06480 | -75.06631 | 20000 ft | 394 kts | 307° |
| 2026-05-09 22:47 | 5.08132 | -75.08834 | 19999 ft | 396 kts | 307° |
| 2026-05-09 22:47 | 5.09803 | -75.11063 | 20001 ft | 395 kts | 307° |
| 2026-05-09 22:47 | 5.11444 | -75.13253 | 19999 ft | 393 kts | 307° |
| 2026-05-09 22:48 | 5.13079 | -75.15435 | 20000 ft | 398 kts | 307° |
| 2026-05-09 22:48 | 5.14780 | -75.17704 | 20000 ft | 399 kts | 307° |
| 2026-05-09 22:48 | 5.16522 | -75.19849 | 20002 ft | 395 kts | 311° |
| 2026-05-09 22:48 | 5.17737 | -75.21212 | 20000 ft | 394 kts | 311° |
| 2026-05-09 22:49 | 5.19570 | -75.23279 | 20000 ft | 398 kts | 311° |
| 2026-05-09 22:49 | 5.22014 | -75.26043 | 20000 ft | 399 kts | 311° |
| 2026-05-09 22:49 | 5.23259 | -75.27452 | 19999 ft | 399 kts | 311° |
| 2026-05-09 22:49 | 5.25104 | -75.29540 | 20000 ft | 399 kts | 311° |
| 2026-05-09 22:50 | 5.26926 | -75.31602 | 20000 ft | 402 kts | 311° |
| 2026-05-09 22:50 | 5.28787 | -75.33708 | 20000 ft | 401 kts | 311° |
| 2026-05-09 22:50 | 5.30643 | -75.35809 | 20000 ft | 401 kts | 311° |
| 2026-05-09 22:50 | 5.32570 | -75.37815 | 19997 ft | 398 kts | 320° |
| 2026-05-09 22:51 | 5.34921 | -75.39268 | 19998 ft | 398 kts | 337° |
| 2026-05-09 22:51 | 5.37592 | -75.40024 | 19759 ft | 399 kts | 352° |
| 2026-05-09 22:51 | 5.40382 | -75.40242 | 19146 ft | 402 kts | 356° |
| 2026-05-09 22:51 | 5.43160 | -75.40374 | 18281 ft | 407 kts | 357° |
| 2026-05-09 22:52 | 5.46002 | -75.40500 | 17474 ft | 408 kts | 357° |
| 2026-05-09 22:52 | 5.48845 | -75.40635 | 16803 ft | 405 kts | 357° |
| 2026-05-09 22:52 | 5.51646 | -75.40778 | 16026 ft | 403 kts | 356° |
| 2026-05-09 22:52 | 5.54429 | -75.40928 | 15569 ft | 394 kts | 356° |
| 2026-05-09 22:53 | 5.57106 | -75.41075 | 15400 ft | 377 kts | 356° |
| 2026-05-09 22:53 | 5.59686 | -75.41218 | 15256 ft | 362 kts | 356° |
| 2026-05-09 22:53 | 5.62156 | -75.41355 | 15116 ft | 348 kts | 356° |
| 2026-05-09 22:53 | 5.64511 | -75.41487 | 14797 ft | 341 kts | 356° |
| 2026-05-09 22:54 | 5.66878 | -75.41619 | 14194 ft | 342 kts | 356° |
| 2026-05-09 22:54 | 5.69282 | -75.41753 | 13444 ft | 348 kts | 356° |
| 2026-05-09 22:54 | 5.71700 | -75.41888 | 12999 ft | 343 kts | 356° |
| 2026-05-09 22:54 | 5.74042 | -75.42017 | 12822 ft | 331 kts | 356° |
| 2026-05-09 22:55 | 5.76288 | -75.42142 | 12778 ft | 314 kts | 356° |
| 2026-05-09 22:55 | 5.78420 | -75.42218 | 12785 ft | 297 kts | 360° |
| 2026-05-09 22:55 | 5.80441 | -75.42211 | 12784 ft | 281 kts | 360° |
| 2026-05-09 22:55 | 5.82392 | -75.42210 | 12785 ft | 265 kts | 359° |
| 2026-05-09 22:56 | 5.84217 | -75.42211 | 12596 ft | 262 kts | 359° |
| 2026-05-09 22:56 | 5.86040 | -75.42181 | 12380 ft | 256 kts | 1° |
| 2026-05-09 22:56 | 5.87746 | -75.42142 | 12279 ft | 243 kts | 0° |
| 2026-05-09 22:56 | 5.88869 | -75.42134 | 12275 ft | 229 kts | 359° |
| 2026-05-09 22:57 | 5.89399 | -75.42136 | 12229 ft | 223 kts | 359° |
| 2026-05-09 22:57 | 5.90891 | -75.42145 | 12112 ft | 206 kts | 359° |
| 2026-05-09 22:57 | 5.92254 | -75.42153 | 12005 ft | 192 kts | 359° |
| 2026-05-09 22:57 | 5.93556 | -75.42162 | 11820 ft | 184 kts | 359° |
| 2026-05-09 22:58 | 5.94826 | -75.42170 | 11512 ft | 179 kts | 359° |
| 2026-05-09 22:58 | 5.96060 | -75.42178 | 11136 ft | 175 kts | 359° |
| 2026-05-09 22:58 | 5.97299 | -75.42187 | 10652 ft | 178 kts | 359° |
| 2026-05-09 22:58 | 5.98521 | -75.42195 | 10237 ft | 175 kts | 359° |
| 2026-05-09 22:59 | 5.99709 | -75.42203 | 9952 ft | 161 kts | 359° |
| 2026-05-09 22:59 | 6.00789 | -75.42209 | 9726 ft | 151 kts | 359° |
| 2026-05-09 22:59 | 6.01853 | -75.42217 | 9522 ft | 154 kts | 359° |
| 2026-05-09 22:59 | 6.02921 | -75.42223 | 9297 ft | 153 kts | 359° |
| 2026-05-09 23:00 | 6.03983 | -75.42221 | 9058 ft | 153 kts | 360° |
| 2026-05-09 23:00 | 6.05031 | -75.42207 | 8793 ft | 151 kts | 0° |
| 2026-05-09 23:00 | 6.06082 | -75.42182 | 8538 ft | 150 kts | 1° |
| 2026-05-09 23:00 | 6.07132 | -75.42170 | 8311 ft | 150 kts | 358° |
| 2026-05-09 23:01 | 6.08157 | -75.42203 | 8205 ft | 149 kts | 357° |
| 2026-05-09 23:01 | 6.09203 | -75.42236 | 8113 ft | 150 kts | 358° |
| 2026-05-09 23:01 | 6.10243 | -75.42249 | 7973 ft | 151 kts | 359° |
| 2026-05-09 23:01 | 6.11286 | -75.42257 | 7774 ft | 149 kts | 359° |
| 2026-05-09 23:02 | 6.12330 | -75.42260 | 7595 ft | 148 kts | 359° |
| 2026-05-09 23:02 | 6.13370 | -75.42268 | 7353 ft | 148 kts | 358° |
| 2026-05-09 23:02 | 6.14384 | -75.42294 | 7174 ft | 147 kts | 358° |
| 2026-05-09 23:02 | 6.15397 | -75.42307 | 7052 ft | 142 kts | 359° |
| 2026-05-09 23:03 | 6.16126 | -75.42315 | 7045 ft | 62 kts | 0° |
| 2026-05-09 23:03 | 6.16532 | -75.42312 | 7047 ft | 54 kts | 358° |
| 2026-05-09 23:03 | 6.16815 | -75.42329 | 7050 ft | 18 kts | 340° |
| 2026-05-09 23:03 | 6.16857 | -75.42420 | 7050 ft | 16 kts | 273° |
| 2026-05-09 23:04 | 6.16916 | -75.42520 | 7047 ft | 18 kts | 328° |
| 2026-05-09 23:04 | 6.17027 | -75.42585 | 7043 ft | 14 kts | 320° |
| 2026-05-09 23:04 | 6.17001 | -75.42672 | 7039 ft | 17 kts | 228° |
| 2026-05-09 23:04 | 6.16919 | -75.42777 | 7034 ft | 21 kts | 249° |
| 2026-05-09 23:05 | 6.16937 | -75.42834 | 7030 ft | 7 kts | 342° |
| 2026-05-09 23:05 | 6.16954 | -75.42838 | 7031 ft | 0 kts | 348° |